Time;durP1;ratioP1;P1;durP2;ratioP2;P2;SDS_P1;SDS_P2;PMS_P1;PMS_P2;Temp;Humidity;BMP_temperature;BMP_pressure;BME280_temperature;BME280_humidity;BME280_pressure;Samples;Min_cycle;Max_cycle;Signal;HPM_P1;HPM_P2
2021/06/30 00:05:14;;;;;;;2.37;2.17;;;18.10;99.90;;;;;;4817092;29;20480;-77
2021/06/30 00:07:49;;;;;;;4.90;2.70;;;18.10;99.90;;;;;;4808491;29;20453;-78
2021/06/30 00:13:24;;;;;;;2.30;2.10;;;17.90;99.90;;;;;;5878551;23;20538;-77
2021/06/30 00:16:39;;;;;;;3.40;2.20;;;17.80;99.90;;;;;;4855340;29;20508;-77
2021/06/30 00:26:48;;;;;;;2.13;2.03;;;17.60;99.90;;;;;;4861914;29;20483;-77
2021/06/30 00:32:17;;;;;;;2.33;2.13;;;17.60;99.90;;;;;;5415761;23;21092;-77
2021/06/30 00:38:35;;;;;;;2.47;2.27;;;17.50;99.90;;;;;;4892581;29;20961;-77
2021/06/30 00:44:49;;;;;;;3.97;1.83;;;17.50;99.90;;;;;;4893740;29;20501;-77
2021/06/30 00:54:52;;;;;;;4.43;2.20;;;17.30;99.90;;;;;;4891973;29;20936;-77
2021/06/30 01:01:39;;;;;;;1.93;1.83;;;17.20;99.90;;;;;;5650753;23;20457;-77
2021/06/30 01:08:22;;;;;;;4.53;2.60;;;17.10;99.90;;;;;;4870836;29;20475;-78
2021/06/30 01:14:37;;;;;;;2.50;2.30;;;16.90;99.90;;;;;;4869565;29;20450;-77
2021/06/30 01:21:02;;;;;;;2.40;2.13;;;16.60;99.90;;;;;;4869500;29;20490;-77
2021/06/30 01:23:39;;;;;;;2.17;1.97;;;16.60;99.90;;;;;;4849347;29;20482;-77
2021/06/30 01:26:35;;;;;;;3.20;2.00;;;16.50;99.90;;;;;;4861616;29;20424;-77
2021/06/30 01:49:46;;;;;;;3.27;2.23;;;17.10;99.90;;;;;;4866740;29;20462;-78
2021/06/30 02:03:20;;;;;;;2.57;2.10;;;17.20;99.90;;;;;;5209047;24;21102;-77
2021/06/30 02:06:36;;;;;;;1.73;1.63;;;17.20;99.90;;;;;;4883236;29;20478;-77
2021/06/30 02:22:49;;;;;;;5.40;2.50;;;16.90;99.90;;;;;;4865064;29;20947;-77
2021/06/30 02:32:53;;;;;;;5.67;2.40;;;16.70;99.90;;;;;;5461432;23;20574;-77
2021/06/30 02:44:32;;;;;;;4.40;1.70;;;16.60;99.90;;;;;;4892258;29;20560;-77
2021/06/30 02:55:56;;;;;;;2.23;1.93;;;16.50;99.90;;;;;;4895160;29;20428;-77
2021/06/30 03:19:51;;;;;;;2.37;2.17;;;16.40;99.90;;;;;;4894246;23;20474;-77
2021/06/30 03:30:56;;;;;;;2.17;1.97;;;16.40;99.90;;;;;;4882571;23;20485;-77
2021/06/30 03:33:24;;;;;;;2.13;1.93;;;16.40;99.90;;;;;;4882423;29;20512;-77
2021/06/30 03:40:24;;;;;;;2.60;2.07;;;16.40;99.90;;;;;;4887958;29;20494;-77
2021/06/30 03:43:16;;;;;;;3.27;2.20;;;16.50;99.90;;;;;;4856087;29;20446;-77
2021/06/30 03:49:45;;;;;;;2.43;2.27;;;16.50;99.90;;;;;;4881190;29;20428;-77
2021/06/30 03:52:12;;;;;;;3.73;1.90;;;16.50;99.90;;;;;;4855664;29;20442;-77
2021/06/30 03:55:02;;;;;;;2.33;2.13;;;16.50;99.90;;;;;;4844249;29;20545;-76
2021/06/30 04:01:22;;;;;;;2.90;2.63;;;16.50;99.90;;;;;;5577745;23;21058;-77
2021/06/30 04:07:52;;;;;;;2.60;2.40;;;16.30;99.90;;;;;;4858978;29;21067;-77
2021/06/30 04:10:37;;;;;;;4.13;2.27;;;16.30;99.90;;;;;;4875346;24;20486;-76
2021/06/30 04:13:29;;;;;;;4.37;2.40;;;16.20;99.90;;;;;;4863063;29;20490;-77
2021/06/30 04:16:48;;;;;;;3.30;2.50;;;16.20;99.90;;;;;;4874084;29;20899;-76
2021/06/30 04:19:51;;;;;;;3.20;2.57;;;16.10;99.90;;;;;;4870609;23;20442;-77
2021/06/30 04:33:06;;;;;;;3.50;3.20;;;16.10;99.90;;;;;;4862094;29;20466;-77
2021/06/30 04:35:38;;;;;;;4.00;2.97;;;16.10;99.90;;;;;;4845560;29;20526;-77
2021/06/30 04:38:09;;;;;;;3.73;2.77;;;16.00;99.90;;;;;;4861472;29;20474;-76
2021/06/30 04:40:44;;;;;;;2.40;2.20;;;16.10;99.90;;;;;;4857724;29;20914;-77
2021/06/30 04:43:10;;;;;;;3.80;3.07;;;16.10;99.90;;;;;;4872113;29;20494;-76
2021/06/30 04:49:32;;;;;;;7.23;2.50;;;16.00;99.90;;;;;;4867422;29;20345;-77
2021/06/30 04:55:47;;;;;;;4.97;3.00;;;16.00;99.90;;;;;;4867355;29;20456;-77
2021/06/30 04:58:59;;;;;;;3.53;3.17;;;16.00;99.90;;;;;;4848231;29;20465;-77
2021/06/30 05:01:44;;;;;;;2.70;2.40;;;16.10;99.90;;;;;;4836225;29;20455;-77
2021/06/30 05:04:35;;;;;;;3.50;2.90;;;16.10;99.90;;;;;;4839401;29;20483;-77
2021/06/30 05:07:26;;;;;;;3.30;3.00;;;16.10;99.90;;;;;;4843917;29;20443;-76
2021/06/30 05:14:10;;;;;;;3.23;2.90;;;16.20;99.90;;;;;;4849027;29;20825;-77
2021/06/30 05:34:56;;;;;;;4.90;3.67;;;16.30;99.90;;;;;;4907230;29;20918;-77
2021/06/30 05:37:42;;;;;;;6.00;4.10;;;16.30;99.90;;;;;;4861372;29;20481;-77
2021/06/30 05:40:09;;;;;;;4.77;3.50;;;16.30;99.90;;;;;;4896173;23;21026;-77
2021/06/30 05:42:49;;;;;;;8.30;4.83;;;16.40;99.90;;;;;;4896748;29;20457;-77
2021/06/30 05:45:16;;;;;;;4.87;4.40;;;16.40;99.90;;;;;;4880138;29;20520;-77
2021/06/30 05:50:59;;;;;;;5.13;4.30;;;16.40;99.90;;;;;;4875725;23;20554;-76
2021/06/30 05:53:31;;;;;;;7.43;4.67;;;16.50;99.90;;;;;;4857086;29;20455;-76
2021/06/30 05:56:07;;;;;;;5.10;4.20;;;16.50;99.90;;;;;;4835540;29;20546;-78
2021/06/30 05:58:49;;;;;;;5.30;4.50;;;16.50;99.90;;;;;;4866732;29;20477;-77
2021/06/30 06:01:24;;;;;;;6.80;5.00;;;16.60;99.90;;;;;;4857115;29;21062;-77
2021/06/30 06:03:52;;;;;;;7.10;5.23;;;16.60;99.90;;;;;;4841017;29;20530;-78
2021/06/30 06:06:18;;;;;;;7.53;5.50;;;16.70;99.90;;;;;;4811241;29;20451;-77
2021/06/30 06:08:50;;;;;;;7.37;5.50;;;16.70;99.90;;;;;;4843704;29;20494;-77
2021/06/30 06:11:44;;;;;;;6.90;5.33;;;16.70;99.90;;;;;;4857396;29;20226;-77
2021/06/30 06:14:31;;;;;;;6.23;5.17;;;16.70;99.90;;;;;;4832059;29;20550;-76
2021/06/30 06:17:00;;;;;;;7.90;5.30;;;16.70;99.90;;;;;;4884008;29;20979;-76
2021/06/30 06:19:26;;;;;;;6.80;4.90;;;16.70;99.90;;;;;;4863694;29;21007;-77
2021/06/30 06:22:22;;;;;;;6.73;5.40;;;16.80;99.90;;;;;;4842523;29;20495;-76
2021/06/30 06:25:32;;;;;;;7.13;5.23;;;16.80;99.90;;;;;;4840522;29;20555;-78
2021/06/30 06:28:07;;;;;;;6.87;4.80;;;16.80;99.90;;;;;;4856355;29;20468;-77
2021/06/30 06:30:39;;;;;;;6.90;5.60;;;16.90;99.90;;;;;;4828923;29;20461;-77
2021/06/30 06:33:23;;;;;;;5.47;4.37;;;16.80;99.90;;;;;;4824541;29;20443;-77
2021/06/30 06:39:36;;;;;;;4.97;4.43;;;16.90;99.90;;;;;;4856832;29;20569;-77
2021/06/30 06:42:39;;;;;;;6.40;4.63;;;16.90;99.90;;;;;;4866298;29;20512;-78
2021/06/30 06:45:37;;;;;;;5.90;5.10;;;17.00;99.90;;;;;;4842129;29;20490;-76
2021/06/30 06:48:04;;;;;;;6.10;4.77;;;17.00;99.90;;;;;;4793354;29;20533;-77
2021/06/30 06:50:38;;;;;;;5.97;5.03;;;17.10;99.90;;;;;;4791559;29;21011;-77
2021/06/30 06:56:33;;;;;;;11.53;5.33;;;17.10;99.90;;;;;;4781702;29;20546;-76
2021/06/30 06:59:18;;;;;;;7.70;5.60;;;17.10;99.90;;;;;;4804658;29;20513;-76
2021/06/30 07:02:00;;;;;;;8.57;5.83;;;17.20;99.90;;;;;;4770739;29;20491;-76
2021/06/30 07:08:15;;;;;;;5.03;4.53;;;17.20;99.90;;;;;;4766236;29;20511;-77
2021/06/30 07:15:26;;;;;;;8.07;5.70;;;17.30;99.90;;;;;;4873923;29;20463;-77
2021/06/30 07:18:37;;;;;;;6.40;5.30;;;17.40;99.90;;;;;;4844377;29;20433;-77
2021/06/30 07:21:16;;;;;;;6.30;5.20;;;17.40;99.90;;;;;;4881751;23;21018;-77
2021/06/30 07:24:11;;;;;;;7.43;5.30;;;17.40;99.90;;;;;;4880899;29;20855;-77
2021/06/30 07:26:49;;;;;;;;;;;;;;;;;;;;;
2021/06/30 07:36:42;;;;;;;5.23;4.40;;;17.40;99.90;;;;;;4805753;29;20440;-76
2021/06/30 07:39:11;;;;;;;5.20;4.50;;;17.40;99.90;;;;;;4791583;29;20436;-76
2021/06/30 07:45:20;;;;;;;3.93;3.50;;;17.40;99.90;;;;;;4835896;29;20469;-77
2021/06/30 07:48:35;;;;;;;2.97;2.67;;;17.40;99.90;;;;;;4793978;29;20518;-77
2021/06/30 07:51:07;;;;;;;4.27;2.30;;;17.40;99.90;;;;;;4820622;29;20454;-77
2021/06/30 07:54:36;;;;;;;3.47;2.30;;;17.30;99.90;;;;;;4820865;29;20457;-77
2021/06/30 07:57:02;;;;;;;7.17;2.17;;;17.30;99.90;;;;;;4813440;29;20467;-77
2021/06/30 08:02:10;;;;;;;2.57;2.37;;;17.30;99.90;;;;;;4873731;29;20225;-77
2021/06/30 08:06:00;;;;;;;2.63;2.37;;;17.30;99.90;;;;;;4840122;29;20573;-77
2021/06/30 08:08:31;;;;;;;2.40;2.20;;;17.40;99.90;;;;;;4777010;29;20619;-77
2021/06/30 08:11:00;;;;;;;2.20;2.10;;;17.40;99.90;;;;;;4843474;24;20470;-77
2021/06/30 08:13:29;;;;;;;2.27;2.07;;;17.30;99.90;;;;;;4848041;29;20471;-76
2021/06/30 08:19:51;;;;;;;2.03;1.83;;;17.40;99.90;;;;;;4852666;29;20983;-77
2021/06/30 08:22:17;;;;;;;2.57;2.10;;;17.40;99.90;;;;;;4827876;29;20517;-77
2021/06/30 08:24:56;;;;;;;3.10;2.70;;;17.40;99.90;;;;;;4851809;29;21014;-77
2021/06/30 08:27:40;;;;;;;4.17;2.50;;;17.50;99.90;;;;;;4859749;29;20210;-77
2021/06/30 08:30:24;;;;;;;3.53;2.57;;;17.50;99.90;;;;;;4848179;29;20490;-77
2021/06/30 08:32:53;;;;;;;2.50;2.30;;;17.60;99.90;;;;;;4857141;29;20471;-77
2021/06/30 08:35:55;;;;;;;2.83;1.90;;;17.60;99.90;;;;;;4855079;29;20449;-76
2021/06/30 08:39:05;;;;;;;2.90;2.03;;;17.60;99.90;;;;;;4848380;29;20507;-77
2021/06/30 08:42:21;;;;;;;2.47;2.33;;;17.60;99.90;;;;;;4822423;29;20484;-77
2021/06/30 08:45:02;;;;;;;3.80;1.90;;;17.60;99.90;;;;;;4804551;29;20492;-77
2021/06/30 08:47:36;;;;;;;2.17;2.07;;;17.70;99.90;;;;;;4813079;29;20462;-77
2021/06/30 08:50:35;;;;;;;2.70;2.50;;;17.70;99.90;;;;;;4810183;29;20543;-77
2021/06/30 08:54:05;;;;;;;2.80;2.60;;;17.80;99.90;;;;;;4811817;29;20470;-77
2021/06/30 08:56:50;;;;;;;2.90;2.70;;;17.80;99.90;;;;;;4807664;29;20846;-77
2021/06/30 08:59:16;;;;;;;2.40;2.20;;;17.80;99.90;;;;;;4775219;29;20477;-77
2021/06/30 09:02:13;;;;;;;2.53;2.37;;;17.90;99.90;;;;;;4781238;29;20885;-76
2021/06/30 09:08:48;;;;;;;2.03;1.93;;;18.00;99.90;;;;;;4856353;29;20460;-76
2021/06/30 09:12:32;;;;;;;;;;;;;;;;;;;;;
2021/06/30 09:15:50;;;;;;;2.20;2.10;;;18.20;99.90;;;;;;4802147;29;20487;-76
2021/06/30 09:19:15;;;;;;;2.90;2.30;;;18.20;99.90;;;;;;4793552;29;20864;-76
2021/06/30 09:22:06;;;;;;;2.27;2.03;;;18.20;99.90;;;;;;4765640;29;20527;-76
2021/06/30 09:36:24;;;;;;;2.50;2.30;;;18.30;99.90;;;;;;4748716;30;20472;-77
2021/06/30 09:39:27;;;;;;;2.77;2.57;;;18.40;99.90;;;;;;4759864;30;21017;-76
2021/06/30 09:42:42;;;;;;;2.80;2.60;;;18.40;99.90;;;;;;4754485;30;20530;-76
2021/06/30 09:46:04;;;;;;;;;;;;;;;;;;;;;
2021/06/30 09:56:57;;;;;;;2.50;2.30;;;18.60;99.90;;;;;;4801733;29;20464;-77
2021/06/30 10:03:10;;;;;;;2.43;2.23;;;18.70;99.90;;;;;;4842778;29;20587;-76
2021/06/30 10:38:07;;;;;;;2.30;2.10;;;20.00;99.90;;;;;;4834557;29;20957;-77
2021/06/30 10:44:52;;;;;;;2.87;2.67;;;20.10;99.90;;;;;;4887980;29;20465;-76
2021/06/30 11:02:37;;;;;;;3.57;3.27;;;20.50;99.90;;;;;;5451026;23;20459;-76
2021/06/30 11:16:50;;;;;;;2.77;2.57;;;20.80;99.90;;;;;;4731461;30;20525;-78
2021/06/30 11:19:17;;;;;;;2.93;2.73;;;20.90;99.90;;;;;;4737402;29;20476;-78
2021/06/30 11:22:03;;;;;;;3.03;2.77;;;20.90;99.90;;;;;;4846326;29;20897;-78
2021/06/30 11:24:36;;;;;;;2.10;2.00;;;20.80;99.90;;;;;;4826978;29;21069;-78
2021/06/30 11:27:25;;;;;;;2.07;1.60;;;20.90;99.90;;;;;;4847265;29;20474;-78
2021/06/30 11:30:08;;;;;;;1.97;1.87;;;20.90;99.90;;;;;;4822169;29;20509;-78
2021/06/30 11:32:58;;;;;;;1.87;1.77;;;20.90;99.90;;;;;;4847710;29;20505;-78
2021/06/30 11:35:28;;;;;;;1.80;1.70;;;20.90;99.90;;;;;;4851708;29;20553;-78
2021/06/30 11:38:39;;;;;;;2.03;1.93;;;21.00;99.90;;;;;;4829773;29;20474;-78
2021/06/30 11:41:26;;;;;;;2.03;1.93;;;20.90;99.90;;;;;;4770514;29;20527;-78
2021/06/30 11:43:56;;;;;;;4.07;1.90;;;20.90;99.90;;;;;;4832864;29;20493;-78
2021/06/30 11:46:44;;;;;;;2.23;2.03;;;20.90;99.90;;;;;;4836776;29;21041;-78
2021/06/30 11:49:23;;;;;;;2.93;2.73;;;20.90;99.90;;;;;;4814694;29;20903;-78
2021/06/30 11:52:24;;;;;;;3.00;2.80;;;20.90;99.90;;;;;;4846523;29;20462;-78
2021/06/30 11:54:58;;;;;;;2.80;2.60;;;20.90;99.90;;;;;;4835717;29;20515;-78
2021/06/30 11:57:26;;;;;;;2.60;2.40;;;20.90;99.90;;;;;;4846223;29;20496;-78
2021/06/30 12:00:50;;;;;;;2.83;2.63;;;20.90;99.90;;;;;;4832800;29;20472;-78
2021/06/30 12:14:55;;;;;;;2.77;2.60;;;21.20;99.90;;;;;;4747633;30;20522;-78
2021/06/30 12:17:29;;;;;;;2.33;2.23;;;21.40;99.90;;;;;;4736931;30;20466;-78
2021/06/30 12:20:25;;;;;;;2.50;2.30;;;21.50;99.90;;;;;;4731536;30;20497;-78
2021/06/30 12:27:10;;;;;;;2.37;2.27;;;21.60;99.90;;;;;;4796006;29;20573;-78
2021/06/30 12:30:32;;;;;;;2.60;2.40;;;21.70;99.90;;;;;;4796479;29;20981;-78
2021/06/30 12:33:06;;;;;;;2.10;2.00;;;21.60;99.90;;;;;;4793412;29;20465;-78
2021/06/30 12:36:36;;;;;;;1.90;1.80;;;21.60;99.90;;;;;;4829551;29;20539;-78
2021/06/30 12:50:22;;;;;;;2.00;1.90;;;21.60;99.90;;;;;;4757481;29;20523;-78
2021/06/30 12:57:07;;;;;;;1.90;1.80;;;21.70;99.90;;;;;;4864821;29;20473;-78
2021/06/30 13:03:20;;;;;;;2.27;2.07;;;21.80;99.90;;;;;;4810871;29;20562;-78
2021/06/30 13:06:14;;;;;;;2.53;1.80;;;21.70;99.90;;;;;;4829546;29;20512;-78
2021/06/30 13:09:02;;;;;;;2.87;1.90;;;21.80;99.90;;;;;;4835660;29;20467;-78
2021/06/30 13:12:11;;;;;;;1.83;1.73;;;21.80;99.90;;;;;;4835345;29;20466;-78
2021/06/30 13:14:49;;;;;;;2.63;2.43;;;21.90;99.90;;;;;;4853153;29;20553;-78
2021/06/30 13:17:26;;;;;;;2.43;2.23;;;21.80;99.90;;;;;;4831650;29;20473;-79
2021/06/30 13:19:52;;;;;;;2.13;2.00;;;21.90;99.90;;;;;;4851429;29;20935;-79
2021/06/30 13:22:46;;;;;;;2.40;2.20;;;21.80;99.90;;;;;;4826109;29;20511;-78
2021/06/30 13:36:37;;;;;;;2.50;2.20;;;21.50;99.90;;;;;;4841331;29;20538;-77
2021/06/30 13:42:33;;;;;;;2.50;2.30;;;21.60;99.90;;;;;;4828371;29;20848;-77
2021/06/30 13:45:01;;;;;;;2.70;2.50;;;21.60;99.90;;;;;;4842719;29;20582;-77
2021/06/30 13:51:54;;;;;;;1.90;1.80;;;21.60;99.90;;;;;;4851150;29;20583;-77
2021/06/30 13:54:52;;;;;;;2.03;1.90;;;21.60;99.90;;;;;;4839956;29;20484;-77
2021/06/30 13:57:21;;;;;;;2.13;2.03;;;21.50;99.90;;;;;;4826277;29;20467;-78
2021/06/30 13:59:50;;;;;;;1.80;1.70;;;21.50;99.90;;;;;;4803230;29;20483;-77
2021/06/30 14:02:37;;;;;;;3.80;2.00;;;21.40;99.90;;;;;;4820079;29;20919;-78
2021/06/30 14:05:06;;;;;;;1.97;1.87;;;21.30;99.90;;;;;;4834519;29;20567;-77
2021/06/30 14:08:27;;;;;;;2.23;2.13;;;21.30;99.90;;;;;;4839759;29;20466;-77
2021/06/30 14:15:17;;;;;;;1.70;1.60;;;21.40;99.90;;;;;;4787606;29;20500;-77
2021/06/30 14:29:42;;;;;;;1.67;1.57;;;21.60;99.90;;;;;;4748508;30;21174;-77
2021/06/30 14:32:48;;;;;;;1.70;1.60;;;21.70;99.90;;;;;;4764716;29;20483;-78
2021/06/30 14:39:49;;;;;;;1.93;1.83;;;21.90;99.90;;;;;;4729281;30;20546;-77
2021/06/30 14:42:30;;;;;;;1.60;1.50;;;21.90;99.90;;;;;;4696863;29;20553;-79
2021/06/30 14:45:06;;;;;;;1.90;1.80;;;21.90;99.90;;;;;;4799908;29;20494;-79
2021/06/30 14:51:06;;;;;;;1.60;1.50;;;21.90;99.90;;;;;;4807911;29;20558;-79
2021/06/30 14:54:04;;;;;;;1.90;1.80;;;21.90;99.90;;;;;;4838820;29;20979;-79
2021/06/30 14:56:33;;;;;;;1.70;1.60;;;21.90;99.90;;;;;;4834717;29;20464;-79
2021/06/30 14:59:31;;;;;;;1.60;1.50;;;21.80;99.90;;;;;;4830184;29;20490;-80
2021/06/30 15:02:13;;;;;;;1.70;1.60;;;21.70;99.90;;;;;;4838735;29;20486;-79
2021/06/30 15:04:58;;;;;;;1.60;1.50;;;21.70;99.90;;;;;;4837860;29;20474;-79
2021/06/30 15:08:26;;;;;;;1.90;1.80;;;21.70;99.90;;;;;;4754446;29;20478;-77
2021/06/30 15:10:55;;;;;;;1.40;1.30;;;21.70;99.90;;;;;;4741807;29;20511;-77
2021/06/30 15:13:25;;;;;;;1.70;1.60;;;21.70;99.90;;;;;;4790745;29;20468;-77
2021/06/30 15:19:36;;;;;;;1.67;1.57;;;21.70;99.90;;;;;;4807161;29;20567;-79
2021/06/30 15:22:45;;;;;;;1.93;1.83;;;21.60;99.90;;;;;;4854148;29;20581;-79
2021/06/30 15:25:26;;;;;;;1.63;1.53;;;21.70;99.90;;;;;;4838514;29;20710;-78
2021/06/30 15:31:54;;;;;;;1.33;1.33;;;21.70;99.90;;;;;;4859352;29;20509;-79
2021/06/30 15:35:02;;;;;;;;;;;;;;;;;;;;;
2021/06/30 15:38:04;;;;;;;1.73;1.40;;;21.80;99.90;;;;;;4847045;29;20523;-80
2021/06/30 15:41:08;;;;;;;1.37;1.27;;;21.80;99.90;;;;;;4842422;29;20922;-79
2021/06/30 15:43:43;;;;;;;1.03;1.03;;;21.80;99.90;;;;;;4836126;29;20473;-79
2021/06/30 15:46:31;;;;;;;1.47;1.37;;;21.70;99.90;;;;;;4835985;29;20470;-79
2021/06/30 15:49:12;;;;;;;1.10;1.10;;;21.60;99.90;;;;;;4793980;29;21020;-79
2021/06/30 15:55:32;;;;;;;0.90;0.90;;;21.60;99.90;;;;;;4824492;29;20492;-79
2021/06/30 15:58:58;;;;;;;1.40;1.30;;;21.60;99.90;;;;;;4856043;29;20459;-79
2021/06/30 16:01:43;;;;;;;;;;;;;;;;;;;;;
2021/06/30 16:07:59;;;;;;;1.27;1.17;;;21.40;99.90;;;;;;4860123;29;20476;-78
2021/06/30 16:11:14;;;;;;;2.33;1.40;;;21.30;99.90;;;;;;4872118;24;20882;-78
2021/06/30 16:13:40;;;;;;;1.60;1.50;;;21.30;99.90;;;;;;4893703;29;20208;-78
2021/06/30 16:20:19;;;;;;;1.97;1.80;;;21.30;99.90;;;;;;4903409;29;20216;-78
2021/06/30 16:26:35;;;;;;;1.47;1.37;;;21.30;99.90;;;;;;4885732;29;20461;-78
2021/06/30 16:31:59;;;;;;;1.67;1.33;;;21.20;99.90;;;;;;5463961;23;20498;-77
2021/06/30 16:55:46;;;;;;;0.90;0.90;;;20.70;99.90;;;;;;4870445;29;20517;-77
2021/06/30 17:13:46;;;;;;;1.40;1.23;;;20.40;99.90;;;;;;4879296;29;20799;-76
2021/06/30 17:20:53;;;;;;;1.60;1.47;;;20.50;99.90;;;;;;4914380;23;20648;-76
2021/06/30 17:24:09;;;;;;;1.43;1.27;;;20.40;99.90;;;;;;4888669;29;20978;-76
2021/06/30 17:26:35;;;;;;;1.47;1.37;;;20.40;99.90;;;;;;4820694;29;20437;-76
2021/06/30 17:29:31;;;;;;;2.23;2.03;;;20.30;99.90;;;;;;4836636;29;20429;-76
2021/06/30 17:31:57;;;;;;;2.00;1.80;;;20.30;99.90;;;;;;4838804;29;20188;-78
2021/06/30 17:38:21;;;;;;;1.60;1.20;;;20.30;99.90;;;;;;4858337;29;20180;-77
2021/06/30 17:40:53;;;;;;;2.30;1.20;;;20.30;99.90;;;;;;4866786;24;20477;-80
2021/06/30 17:43:27;;;;;;;0.90;0.90;;;20.30;99.90;;;;;;4868469;29;20446;-79
2021/06/30 17:53:43;;;;;;;0.90;0.90;;;20.20;99.90;;;;;;4892842;29;20566;-77
2021/06/30 17:59:50;;;;;;;0.90;0.87;;;20.10;99.90;;;;;;4894841;29;20529;-77
2021/06/30 18:02:25;;;;;;;1.40;1.23;;;20.00;99.90;;;;;;4893783;29;20525;-77
2021/06/30 18:08:37;;;;;;;1.00;0.90;;;19.90;99.90;;;;;;4916598;29;20176;-77
2021/06/30 18:11:53;;;;;;;0.90;0.90;;;19.90;99.90;;;;;;4866153;24;20502;-77
2021/06/30 18:15:03;;;;;;;1.03;0.90;;;19.80;99.90;;;;;;4835000;29;20279;-77
2021/06/30 18:18:12;;;;;;;0.97;0.97;;;19.70;99.90;;;;;;4863471;29;20507;-77
2021/06/30 18:31:54;;;;;;;1.17;1.10;;;19.50;99.90;;;;;;4889918;29;20493;-77
2021/06/30 18:34:55;;;;;;;1.30;1.20;;;19.60;99.90;;;;;;4891901;29;20527;-77
2021/06/30 18:38:02;;;;;;;1.17;1.17;;;19.60;99.90;;;;;;4859378;29;20197;-77
2021/06/30 18:49:02;;;;;;;1.40;1.30;;;19.30;99.90;;;;;;4801110;29;20453;-77
2021/06/30 18:52:10;;;;;;;1.30;1.20;;;19.20;99.90;;;;;;4811839;29;20460;-77
2021/06/30 18:58:55;;;;;;;1.73;1.53;;;19.40;99.90;;;;;;4773931;29;20493;-79
2021/06/30 19:13:08;;;;;;;1.43;1.33;;;19.40;99.90;;;;;;4877108;29;20618;-77
2021/06/30 19:15:54;;;;;;;1.20;1.20;;;19.50;99.90;;;;;;4832594;29;21082;-80
2021/06/30 19:19:09;;;;;;;0.97;0.97;;;19.50;99.90;;;;;;4847499;29;20905;-80
2021/06/30 19:29:09;;;;;;;3.63;2.60;;;19.50;99.90;;;;;;4867332;29;20498;-79
2021/06/30 19:31:55;;;;;;;1.97;1.87;;;19.40;99.90;;;;;;4849814;29;20454;-79
2021/06/30 19:34:42;;;;;;;2.07;1.70;;;19.40;99.90;;;;;;4875138;29;21011;-79
2021/06/30 19:41:35;;;;;;;1.20;1.20;;;19.40;99.90;;;;;;4867151;29;20528;-81
2021/06/30 19:44:04;;;;;;;1.17;1.10;;;19.30;99.90;;;;;;4849505;29;20477;-79
2021/06/30 19:50:46;;;;;;;1.10;0.97;;;19.20;99.90;;;;;;4853638;29;20469;-79
2021/06/30 19:53:27;;;;;;;1.50;1.37;;;19.10;99.90;;;;;;4857030;29;20491;-79
2021/06/30 19:55:53;;;;;;;1.40;1.40;;;18.90;99.90;;;;;;4848588;29;20445;-79
2021/06/30 19:58:19;;;;;;;4.30;1.57;;;18.80;99.90;;;;;;4865279;29;20454;-79
2021/06/30 20:01:25;;;;;;;2.13;1.50;;;18.80;99.90;;;;;;4869909;29;20537;-79
2021/06/30 20:04:11;;;;;;;2.00;1.80;;;18.70;99.90;;;;;;4872657;29;20241;-77
2021/06/30 20:06:37;;;;;;;2.40;2.20;;;18.60;99.90;;;;;;4862305;29;20478;-76
2021/06/30 20:13:20;;;;;;;2.13;1.93;;;18.50;99.90;;;;;;4839387;29;20727;-77
2021/06/30 20:15:48;;;;;;;2.93;2.03;;;18.50;99.90;;;;;;4849830;29;20489;-76
2021/06/30 20:18:26;;;;;;;2.87;1.93;;;18.40;99.90;;;;;;4865069;29;20458;-76
2021/06/30 20:21:32;;;;;;;2.13;1.90;;;18.40;99.90;;;;;;4856729;29;20512;-76
2021/06/30 20:23:59;;;;;;;2.83;2.63;;;18.30;99.90;;;;;;4863594;29;20473;-76
2021/06/30 20:26:25;;;;;;;2.47;1.90;;;18.30;99.90;;;;;;4855031;29;20451;-77
2021/06/30 20:28:52;;;;;;;2.50;2.27;;;18.30;99.90;;;;;;4883230;29;20563;-77
2021/06/30 20:31:19;;;;;;;2.40;2.20;;;18.30;99.90;;;;;;4847110;29;20459;-77
2021/06/30 20:33:51;;;;;;;2.37;2.10;;;18.20;99.90;;;;;;4847479;29;20442;-77
2021/06/30 20:36:17;;;;;;;2.33;2.13;;;18.20;99.90;;;;;;4846274;29;20463;-76
2021/06/30 20:42:31;;;;;;;2.40;2.20;;;18.10;99.90;;;;;;4877678;29;20322;-77
2021/06/30 20:44:58;;;;;;;4.10;3.70;;;18.00;99.90;;;;;;4862179;29;20550;-77
2021/06/30 20:47:52;;;;;;;5.23;3.20;;;18.00;99.90;;;;;;4864654;29;20446;-77
2021/06/30 20:50:44;;;;;;;5.00;3.10;;;18.00;99.90;;;;;;4875495;29;20450;-77
2021/06/30 21:08:49;;;;;;;3.70;2.63;;;17.80;99.90;;;;;;4879894;29;20477;-76
2021/06/30 21:11:53;;;;;;;2.77;2.53;;;17.80;99.90;;;;;;4894854;29;20471;-76
2021/06/30 21:14:31;;;;;;;2.90;2.30;;;17.70;99.90;;;;;;4847964;29;20871;-77
2021/06/30 21:17:03;;;;;;;3.50;2.60;;;17.60;99.90;;;;;;4867913;29;20464;-76
2021/06/30 21:19:36;;;;;;;1.97;1.80;;;17.60;99.90;;;;;;4867229;29;20466;-76
2021/06/30 21:26:29;;;;;;;2.53;2.33;;;17.50;99.90;;;;;;4838430;29;20498;-77
2021/06/30 21:29:57;;;;;;;1.77;1.67;;;17.50;99.90;;;;;;4828572;29;20855;-78
2021/06/30 21:32:29;;;;;;;2.60;2.40;;;17.50;99.90;;;;;;4785771;29;20460;-77
2021/06/30 21:35:07;;;;;;;3.33;2.60;;;17.40;99.90;;;;;;4813493;29;20471;-77
2021/06/30 21:37:56;;;;;;;3.20;2.10;;;17.40;99.90;;;;;;4825487;29;20592;-77
2021/06/30 21:40:40;;;;;;;2.50;2.27;;;17.50;99.90;;;;;;4831413;29;20571;-77
2021/06/30 21:43:22;;;;;;;;;;;;;;;;;;;;;
2021/06/30 21:46:30;;;;;;;2.60;2.40;;;17.40;99.90;;;;;;4857320;29;20458;-77
2021/06/30 21:49:03;;;;;;;3.10;2.70;;;17.40;99.90;;;;;;4847039;29;20464;-77
2021/06/30 21:52:10;;;;;;;2.60;2.40;;;17.40;99.90;;;;;;4849641;29;20553;-77
2021/06/30 21:54:36;;;;;;;2.63;2.43;;;17.40;99.90;;;;;;4814553;29;20510;-77
2021/06/30 21:57:50;;;;;;;2.70;2.50;;;17.40;99.90;;;;;;4858782;29;20471;-77
2021/06/30 22:01:00;;;;;;;3.80;3.00;;;17.40;99.90;;;;;;4870337;24;20239;-77
2021/06/30 22:03:25;;;;;;;2.83;2.33;;;17.30;99.90;;;;;;4859919;29;20489;-77
2021/06/30 22:14:07;;;;;;;2.03;1.83;;;17.30;99.90;;;;;;4872297;29;20845;-77
2021/06/30 22:16:42;;;;;;;4.00;2.50;;;17.30;99.90;;;;;;4857625;29;20551;-77
2021/06/30 22:20:29;;;;;;;;;;;;;;;;;;;;;
2021/06/30 22:27:16;;;;;;;2.50;2.30;;;17.20;99.90;;;;;;4860506;29;20434;-77
2021/06/30 22:32:47;;;;;;;2.63;2.43;;;17.10;99.90;;;;;;4831560;29;20495;-77
2021/06/30 22:35:31;;;;;;;2.67;2.33;;;17.10;99.90;;;;;;4833241;29;20467;-77
2021/06/30 22:37:57;;;;;;;2.40;1.70;;;17.00;99.90;;;;;;4828686;29;20331;-77
2021/06/30 22:40:49;;;;;;;5.13;2.00;;;17.00;99.90;;;;;;4823343;29;20539;-77
2021/06/30 22:43:35;;;;;;;;;;;;;;;;;;;;;
2021/06/30 22:50:42;;;;;;;;;;;;;;;;;;;;;
2021/06/30 22:53:40;;;;;;;3.27;2.37;;;16.90;99.90;;;;;;4780698;29;20882;-77
2021/06/30 22:56:12;;;;;;;3.17;2.30;;;16.90;99.90;;;;;;4785477;29;20466;-77
2021/06/30 22:58:52;;;;;;;3.60;2.47;;;16.90;99.90;;;;;;4801461;29;20593;-77
2021/06/30 23:01:20;;;;;;;3.53;2.37;;;16.90;99.90;;;;;;4875892;29;20504;-77
2021/06/30 23:03:46;;;;;;;2.97;1.87;;;16.80;99.90;;;;;;4867622;29;20545;-77
2021/06/30 23:06:12;;;;;;;2.10;1.90;;;16.80;99.90;;;;;;4868136;29;20854;-77
2021/06/30 23:08:48;;;;;;;3.43;2.20;;;16.70;99.90;;;;;;4874757;29;20225;-77
2021/06/30 23:15:38;;;;;;;2.20;2.00;;;16.60;99.90;;;;;;4876479;29;20446;-77
2021/06/30 23:22:26;;;;;;;2.83;2.20;;;16.60;99.90;;;;;;4836862;29;20431;-77
2021/06/30 23:24:52;;;;;;;2.57;1.93;;;16.50;99.90;;;;;;4839779;29;20480;-77
2021/06/30 23:27:27;;;;;;;2.10;2.00;;;16.50;99.90;;;;;;4814541;29;21012;-77
2021/06/30 23:29:52;;;;;;;1.70;1.57;;;16.50;99.90;;;;;;4826186;29;20245;-77
2021/06/30 23:32:20;;;;;;;3.37;2.10;;;16.50;99.90;;;;;;4818324;29;20479;-77
2021/06/30 23:35:21;;;;;;;1.70;1.60;;;16.40;99.90;;;;;;4836329;29;20217;-77
2021/06/30 23:38:05;;;;;;;2.00;1.47;;;16.40;99.90;;;;;;4891157;29;20492;-77
2021/06/30 23:40:37;;;;;;;2.20;2.00;;;16.40;99.90;;;;;;4867129;29;20472;-77
2021/06/30 23:43:12;;;;;;;3.30;1.80;;;16.30;99.90;;;;;;4888863;29;20514;-77
2021/06/30 23:45:46;;;;;;;2.47;2.27;;;16.30;99.90;;;;;;4861500;29;20485;-77
2021/06/30 23:48:32;;;;;;;3.23;2.10;;;16.20;99.90;;;;;;4867067;29;20478;-77
2021/06/30 23:51:10;;;;;;;1.93;1.80;;;16.20;99.90;;;;;;4863322;29;20479;-77
2021/06/30 23:53:39;;;;;;;2.80;2.17;;;16.20;99.90;;;;;;4851427;29;20469;-77
2021/06/30 23:56:05;;;;;;;2.40;1.90;;;16.20;99.90;;;;;;4893558;29;20457;-77
2021/06/30 23:58:40;;;;;;;3.80;2.37;;;16.10;99.90;;;;;;4868137;29;20508;-77
